Time;durP1;ratioP1;P1;durP2;ratioP2;P2;SDS_P1;SDS_P2;PMS_P1;PMS_P2;Temp;Humidity;BMP_temperature;BMP_pressure;BME280_temperature;BME280_humidity;BME280_pressure;Samples;Min_cycle;Max_cycle;Signal;HPM_P1;HPM_P2
2021/04/05 00:02:09;;;;;;;12.63;7.93;;;6.60;72.80;;;;;;4972074;28;20562;-92
2021/04/05 00:04:35;;;;;;;13.52;7.93;;;6.70;73.00;;;;;;4970817;28;20031;-92
2021/04/05 00:07:00;;;;;;;16.67;8.20;;;6.70;72.90;;;;;;4971617;28;20046;-91
2021/04/05 00:09:26;;;;;;;18.85;10.00;;;6.70;73.00;;;;;;4972777;28;20460;-91
2021/04/05 00:11:51;;;;;;;13.73;8.05;;;6.70;73.10;;;;;;4972410;28;20054;-91
2021/04/05 00:14:17;;;;;;;13.82;8.82;;;6.70;73.10;;;;;;4971909;28;20082;-91
2021/04/05 00:16:42;;;;;;;17.80;9.65;;;6.70;73.10;;;;;;4970033;28;20030;-91
2021/04/05 00:19:08;;;;;;;15.30;9.13;;;6.70;73.30;;;;;;4972664;28;20118;-91
2021/04/05 00:21:34;;;;;;;15.00;9.32;;;6.70;73.40;;;;;;4972033;28;20058;-91
2021/04/05 00:23:59;;;;;;;16.27;9.32;;;6.70;73.40;;;;;;4972921;28;20057;-92
2021/04/05 00:26:25;;;;;;;14.27;9.05;;;6.70;73.60;;;;;;4973520;28;20485;-92
2021/04/05 00:28:51;;;;;;;18.33;9.25;;;6.60;73.60;;;;;;4970791;28;20038;-92
2021/04/05 00:31:17;;;;;;;14.23;7.60;;;6.60;73.60;;;;;;4973062;28;20027;-92
2021/04/05 00:33:43;;;;;;;19.08;10.23;;;6.60;73.40;;;;;;4973484;28;21362;-93
2021/04/05 00:36:08;;;;;;;16.75;9.70;;;6.70;73.60;;;;;;4971816;28;20034;-91
2021/04/05 00:38:34;;;;;;;15.90;9.52;;;6.70;73.60;;;;;;4975893;28;20460;-91
2021/04/05 00:41:07;;;;;;;14.43;8.95;;;6.70;73.60;;;;;;4975601;28;20414;-90
2021/04/05 00:43:34;;;;;;;18.42;11.15;;;6.70;73.60;;;;;;4974925;28;20122;-91
2021/04/05 00:46:01;;;;;;;20.13;11.07;;;6.70;73.70;;;;;;4973690;28;20015;-92
2021/04/05 00:48:27;;;;;;;14.65;8.07;;;6.70;73.70;;;;;;4975507;28;20034;-91
2021/04/05 00:50:59;;;;;;;14.85;9.02;;;6.70;73.60;;;;;;4975553;28;20031;-91
2021/04/05 00:53:34;;;;;;;19.45;10.45;;;6.70;73.70;;;;;;4975195;28;20035;-92
2021/04/05 00:56:00;;;;;;;20.25;10.90;;;6.70;73.70;;;;;;4973916;28;20038;-91
2021/04/05 00:58:26;;;;;;;17.92;9.20;;;6.80;73.70;;;;;;4975589;28;20144;-91
2021/04/05 01:00:55;;;;;;;18.70;10.00;;;6.70;73.70;;;;;;4975771;28;20038;-91
2021/04/05 01:03:23;;;;;;;19.52;11.05;;;6.80;73.80;;;;;;4974499;28;20038;-92
2021/04/05 01:05:51;;;;;;;14.20;9.23;;;6.80;74.10;;;;;;4974765;28;20042;-92
2021/04/05 01:08:17;;;;;;;21.38;12.40;;;6.80;74.00;;;;;;4974723;28;20552;-92
2021/04/05 01:10:44;;;;;;;17.17;10.23;;;6.80;74.00;;;;;;4975250;28;20045;-91
2021/04/05 01:13:09;;;;;;;17.25;10.00;;;6.80;74.00;;;;;;4974537;28;20038;-90
2021/04/05 01:15:35;;;;;;;16.58;8.82;;;6.80;73.90;;;;;;4974335;28;20041;-89
2021/04/05 01:18:01;;;;;;;21.33;11.13;;;6.80;73.80;;;;;;4973151;28;20050;-91
2021/04/05 01:20:27;;;;;;;15.35;9.57;;;6.80;74.10;;;;;;4975943;28;20067;-91
2021/04/05 01:22:54;;;;;;;19.48;10.50;;;6.80;74.10;;;;;;4974894;28;20105;-91
2021/04/05 01:25:21;;;;;;;17.00;10.52;;;6.80;74.20;;;;;;4973528;28;20018;-93
2021/04/05 01:27:47;;;;;;;17.33;9.15;;;6.80;74.20;;;;;;4974226;28;20030;-94
2021/04/05 01:30:30;;;;;;;18.38;9.75;;;6.90;74.10;;;;;;4972239;28;20037;-92
2021/04/05 01:33:08;;;;;;;17.35;10.27;;;6.90;74.30;;;;;;4975070;28;20493;-94
2021/04/05 01:35:42;;;;;;;14.43;8.55;;;6.90;74.30;;;;;;4974522;28;20031;-92
2021/04/05 01:38:08;;;;;;;15.43;9.60;;;7.00;74.10;;;;;;4975913;28;20374;-92
2021/04/05 01:40:40;;;;;;;17.20;9.43;;;7.00;74.00;;;;;;4972479;28;20705;-92
2021/04/05 01:43:07;;;;;;;15.77;9.07;;;7.00;74.10;;;;;;4975491;28;20078;-92
2021/04/05 01:45:32;;;;;;;19.63;10.85;;;7.10;74.10;;;;;;4974367;28;20034;-92
2021/04/05 01:47:58;;;;;;;18.58;11.00;;;7.10;74.40;;;;;;4976705;28;20027;-92
2021/04/05 01:50:24;;;;;;;25.58;12.55;;;7.10;74.50;;;;;;4977021;28;20027;-92
2021/04/05 01:52:50;;;;;;;17.98;9.50;;;7.10;74.30;;;;;;4975654;28;20098;-93
2021/04/05 01:55:16;;;;;;;15.48;9.45;;;7.20;74.30;;;;;;4974801;28;20118;-92
2021/04/05 01:57:43;;;;;;;19.02;10.23;;;7.20;74.20;;;;;;4973676;28;20058;-92
2021/04/05 02:00:30;;;;;;;15.57;9.20;;;7.20;74.00;;;;;;4972703;28;20145;-91
2021/04/05 02:02:57;;;;;;;15.27;9.50;;;7.30;74.10;;;;;;4977042;28;20031;-93
2021/04/05 02:05:25;;;;;;;15.90;8.68;;;7.30;74.10;;;;;;4973797;28;20030;-93
2021/04/05 02:07:51;;;;;;;12.90;8.02;;;7.30;74.10;;;;;;4977869;28;20035;-94
2021/04/05 02:10:22;;;;;;;16.17;8.52;;;7.40;74.30;;;;;;4983714;28;20082;-94
2021/04/05 02:12:48;;;;;;;17.23;8.73;;;7.30;74.00;;;;;;4985582;28;20478;-94
2021/04/05 02:15:15;;;;;;;17.25;9.57;;;7.40;74.40;;;;;;4985448;28;20030;-94
2021/04/05 02:17:41;;;;;;;21.10;10.50;;;7.40;74.50;;;;;;4985227;28;20026;-92
2021/04/05 02:20:11;;;;;;;16.45;9.05;;;7.50;74.80;;;;;;4978634;28;20070;-92
2021/04/05 02:22:48;;;;;;;15.18;9.38;;;7.50;74.80;;;;;;4973210;28;20033;-93
2021/04/05 02:25:16;;;;;;;16.27;8.68;;;7.50;74.80;;;;;;4974799;28;20074;-92
2021/04/05 02:27:44;;;;;;;21.50;11.32;;;7.50;74.80;;;;;;4972293;28;20035;-94
2021/04/05 02:30:10;;;;;;;18.17;8.88;;;7.50;75.00;;;;;;4973033;28;20016;-93
2021/04/05 02:32:39;;;;;;;17.17;9.07;;;7.60;75.00;;;;;;4976987;28;20039;-95
2021/04/05 02:35:06;;;;;;;21.25;11.82;;;7.60;74.90;;;;;;4974520;28;20118;-91
2021/04/05 02:37:31;;;;;;;17.48;9.20;;;7.60;75.10;;;;;;4972460;28;20073;-91
2021/04/05 02:39:59;;;;;;;19.75;10.52;;;7.60;75.20;;;;;;4971189;28;20117;-91
2021/04/05 02:42:25;;;;;;;20.05;9.75;;;7.60;75.50;;;;;;4971511;28;20027;-91
2021/04/05 02:44:52;;;;;;;15.98;8.52;;;7.60;75.50;;;;;;4971117;28;20058;-91
2021/04/05 02:47:17;;;;;;;19.10;10.50;;;7.70;75.60;;;;;;4973317;28;20097;-93
2021/04/05 02:49:44;;;;;;;19.75;9.02;;;7.70;75.50;;;;;;4973280;28;20536;-91
2021/04/05 02:52:10;;;;;;;17.25;9.05;;;7.70;75.60;;;;;;4970373;28;20023;-91
2021/04/05 02:54:37;;;;;;;16.05;8.98;;;7.70;75.40;;;;;;4972375;28;20508;-91
2021/04/05 02:57:03;;;;;;;16.50;8.00;;;7.80;75.50;;;;;;4973183;28;20129;-90
2021/04/05 02:59:28;;;;;;;13.38;7.57;;;7.80;75.50;;;;;;4971969;28;20034;-91
2021/04/05 03:01:54;;;;;;;18.15;9.60;;;7.80;75.50;;;;;;4972826;28;20038;-92
2021/04/05 03:04:21;;;;;;;18.83;9.05;;;7.80;75.60;;;;;;4973072;28;20027;-92
2021/04/05 03:06:49;;;;;;;16.45;8.75;;;7.90;75.60;;;;;;4972750;28;20054;-92
2021/04/05 03:09:15;;;;;;;20.00;9.90;;;7.90;75.50;;;;;;4969630;28;20081;-91
2021/04/05 03:11:43;;;;;;;16.50;9.07;;;7.90;75.70;;;;;;4973023;28;20433;-92
2021/04/05 03:14:10;;;;;;;18.45;9.63;;;7.90;75.70;;;;;;4972501;28;20038;-91
2021/04/05 03:16:38;;;;;;;14.32;8.07;;;7.90;75.80;;;;;;4972169;28;20023;-91
2021/04/05 03:19:05;;;;;;;21.70;9.75;;;8.00;75.80;;;;;;4973431;28;20493;-91
2021/04/05 03:21:31;;;;;;;21.58;11.02;;;8.00;76.00;;;;;;4974370;28;20031;-89
2021/04/05 03:24:01;;;;;;;21.20;10.50;;;8.00;76.20;;;;;;4973327;28;20085;-90
2021/04/05 03:26:27;;;;;;;15.70;8.07;;;8.00;76.30;;;;;;4972020;28;20023;-92
2021/04/05 03:28:53;;;;;;;15.68;7.55;;;8.00;76.00;;;;;;4974706;28;20049;-91
2021/04/05 03:31:21;;;;;;;16.98;7.93;;;8.10;75.90;;;;;;4973252;28;20030;-91
2021/04/05 03:34:13;;;;;;;15.77;8.32;;;8.10;75.90;;;;;;4972022;28;20051;-92
2021/04/05 03:36:51;;;;;;;14.98;7.47;;;8.10;76.00;;;;;;4971437;28;20085;-92
2021/04/05 03:39:17;;;;;;;12.15;6.35;;;8.10;75.80;;;;;;4972530;28;20086;-91
2021/04/05 03:42:20;;;;;;;11.25;7.28;;;8.20;75.80;;;;;;4972930;28;20031;-93
2021/04/05 03:45:24;;;;;;;19.75;9.90;;;8.20;75.80;;;;;;4918553;28;20501;-90
2021/04/05 03:48:12;;;;;;;16.35;8.02;;;8.20;76.10;;;;;;4971298;28;20478;-90
2021/04/05 03:50:47;;;;;;;14.55;7.65;;;8.20;76.20;;;;;;4971494;28;20031;-90
2021/04/05 03:53:32;;;;;;;15.48;7.55;;;8.20;75.90;;;;;;4969837;28;20149;-90
2021/04/05 03:56:37;;;;;;;10.80;6.35;;;8.20;75.80;;;;;;4972917;28;20153;-93
2021/04/05 03:59:08;;;;;;;11.55;5.82;;;8.30;75.60;;;;;;4965145;28;20069;-93
2021/04/05 04:01:42;;;;;;;14.25;6.88;;;8.30;75.40;;;;;;4972135;28;20122;-93
2021/04/05 04:04:15;;;;;;;16.10;7.57;;;8.30;75.50;;;;;;4973839;28;20095;-92
2021/04/05 04:09:10;;;;;;;17.85;8.32;;;8.30;75.70;;;;;;4973087;28;20046;-93
2021/04/05 04:11:39;;;;;;;15.02;7.43;;;8.30;75.60;;;;;;4974479;28;20502;-92
2021/04/05 04:14:07;;;;;;;18.42;9.15;;;8.30;75.60;;;;;;4975234;28;20039;-94
2021/04/05 04:16:34;;;;;;;16.70;7.40;;;8.40;75.60;;;;;;4975927;28;20061;-93
2021/04/05 04:19:03;;;;;;;14.85;8.25;;;8.40;75.50;;;;;;4975148;28;20057;-92
2021/04/05 04:21:30;;;;;;;14.05;7.22;;;8.40;75.60;;;;;;4975065;28;20033;-92
2021/04/05 04:24:07;;;;;;;14.13;7.80;;;8.40;75.80;;;;;;4974879;28;20098;-91
2021/04/05 04:26:34;;;;;;;12.15;6.70;;;8.40;75.60;;;;;;4974739;28;20019;-91
2021/04/05 04:29:00;;;;;;;14.45;8.57;;;8.40;75.40;;;;;;4977754;28;20030;-93
2021/04/05 04:31:25;;;;;;;17.95;8.07;;;8.40;75.60;;;;;;4972708;28;20084;-93
2021/04/05 04:33:51;;;;;;;14.07;7.72;;;8.40;75.50;;;;;;4976347;28;20644;-92
2021/04/05 04:36:27;;;;;;;14.75;7.82;;;8.50;75.50;;;;;;4975881;28;20042;-93
2021/04/05 04:38:54;;;;;;;17.33;9.35;;;8.50;75.40;;;;;;4975211;28;20035;-93
2021/04/05 04:41:24;;;;;;;14.88;7.32;;;8.50;75.40;;;;;;4975843;28;20022;-91
2021/04/05 04:43:58;;;;;;;16.20;8.13;;;8.50;75.40;;;;;;4974491;28;20038;-91
2021/04/05 04:46:23;;;;;;;13.65;7.15;;;8.50;75.40;;;;;;4974099;28;20062;-91
2021/04/05 04:48:57;;;;;;;10.18;6.20;;;8.50;75.40;;;;;;4975898;28;20031;-91
2021/04/05 04:51:23;;;;;;;8.90;5.68;;;8.50;75.50;;;;;;4975393;28;20379;-91
2021/04/05 04:53:49;;;;;;;16.00;6.57;;;8.50;75.60;;;;;;4974214;28;20046;-91
2021/04/05 04:56:16;;;;;;;9.13;5.15;;;8.50;75.70;;;;;;4974827;28;20018;-91
2021/04/05 04:58:43;;;;;;;12.52;6.53;;;8.50;75.60;;;;;;4975530;28;20349;-91
2021/04/05 05:01:10;;;;;;;10.98;6.25;;;8.50;75.60;;;;;;4975377;28;20086;-92
2021/04/05 05:03:40;;;;;;;12.20;6.20;;;8.60;75.70;;;;;;4973484;28;20029;-91
2021/04/05 05:06:08;;;;;;;9.68;5.38;;;8.50;75.70;;;;;;4973078;28;20105;-90
2021/04/05 05:08:34;;;;;;;13.25;5.95;;;8.50;75.60;;;;;;4976271;28;20031;-94
2021/04/05 05:11:00;;;;;;;11.73;6.18;;;8.60;75.60;;;;;;4977668;28;20385;-94
2021/04/05 05:13:26;;;;;;;13.05;6.40;;;8.50;75.80;;;;;;4977002;28;20097;-94
2021/04/05 05:15:52;;;;;;;13.02;6.40;;;8.60;75.70;;;;;;4974565;28;21159;-93
2021/04/05 05:18:18;;;;;;;10.20;5.90;;;8.60;75.80;;;;;;4978397;28;20110;-93
2021/04/05 05:20:44;;;;;;;7.90;4.80;;;8.60;75.80;;;;;;4976267;28;20433;-93
2021/04/05 05:23:10;;;;;;;10.07;5.28;;;8.60;75.70;;;;;;4972585;28;20065;-93
2021/04/05 05:25:41;;;;;;;8.95;4.90;;;8.70;75.80;;;;;;4972999;28;21300;-93
2021/04/05 05:28:08;;;;;;;15.85;6.75;;;8.70;75.60;;;;;;4977680;28;20046;-91
2021/04/05 05:30:35;;;;;;;10.77;6.03;;;8.70;75.60;;;;;;4973323;28;20030;-92
2021/04/05 05:33:04;;;;;;;6.22;4.10;;;8.70;75.40;;;;;;4975759;28;20043;-94
2021/04/05 05:35:32;;;;;;;10.98;5.25;;;8.80;75.30;;;;;;4975158;28;20105;-93
2021/04/05 05:38:00;;;;;;;12.10;5.53;;;8.80;75.10;;;;;;4974957;28;20031;-93
2021/04/05 05:40:27;;;;;;;12.32;6.88;;;8.90;75.10;;;;;;4975885;28;20117;-93
2021/04/05 05:43:15;;;;;;;11.63;6.10;;;8.90;75.10;;;;;;4976483;28;20035;-92
2021/04/05 05:46:22;;;;;;;7.55;3.30;;;8.80;75.20;;;;;;4972612;28;20109;-88
2021/04/05 05:49:11;;;;;;;4.22;2.08;;;8.50;74.90;;;;;;4973321;28;20570;-85
2021/04/05 05:51:56;;;;;;;5.25;1.63;;;8.20;75.10;;;;;;4970122;28;20054;-88
2021/04/05 05:54:49;;;;;;;2.83;1.65;;;7.90;75.50;;;;;;4974536;28;20121;-90
2021/04/05 05:57:21;;;;;;;1.92;1.30;;;7.70;76.10;;;;;;4972158;28;20045;-88
2021/04/05 05:59:54;;;;;;;2.17;1.20;;;7.60;76.70;;;;;;4970518;28;20035;-89
2021/04/05 06:02:52;;;;;;;2.38;1.25;;;7.40;76.90;;;;;;4972323;28;20023;-89
2021/04/05 06:05:35;;;;;;;2.75;1.20;;;7.40;77.00;;;;;;4970278;28;20043;-88
2021/04/05 06:08:16;;;;;;;3.45;1.23;;;7.30;77.20;;;;;;4973126;28;20027;-87
2021/04/05 06:10:49;;;;;;;3.28;1.10;;;7.30;77.40;;;;;;4971711;28;20034;-89
2021/04/05 06:13:55;;;;;;;2.50;1.00;;;7.20;77.50;;;;;;4972742;28;20489;-88
2021/04/05 06:16:50;;;;;;;2.67;1.10;;;7.10;77.90;;;;;;4954269;28;20038;-88
2021/04/05 06:19:33;;;;;;;1.85;0.98;;;7.00;78.10;;;;;;4968712;28;20026;-90
2021/04/05 06:22:24;;;;;;;2.25;1.00;;;6.90;78.10;;;;;;4970739;28;20079;-87
2021/04/05 06:25:09;;;;;;;3.15;1.00;;;6.90;78.10;;;;;;4970167;28;20031;-87
2021/04/05 06:27:41;;;;;;;1.52;0.80;;;6.90;78.10;;;;;;4969500;28;20500;-88
2021/04/05 06:30:13;;;;;;;1.42;0.75;;;6.80;78.10;;;;;;4971148;28;20031;-89
2021/04/05 06:33:15;;;;;;;1.70;0.80;;;6.70;78.20;;;;;;4970848;28;20037;-88
2021/04/05 06:35:52;;;;;;;4.18;1.05;;;6.70;78.30;;;;;;4971528;28;20030;-87
2021/04/05 06:38:25;;;;;;;1.63;0.68;;;6.60;78.30;;;;;;4966470;28;20089;-86
2021/04/05 06:40:54;;;;;;;2.35;1.10;;;6.60;78.40;;;;;;4968374;28;20027;-87
2021/04/05 06:43:47;;;;;;;4.55;1.25;;;6.60;78.30;;;;;;4970722;28;20027;-90
2021/04/05 06:46:43;;;;;;;;;;;6.60;78.30;;;;;;4972346;28;20073;-92
2021/04/05 06:49:35;;;;;;;4.15;2.42;;;6.50;78.10;;;;;;4971435;28;19917;-92
2021/04/05 06:52:13;;;;;;;2.65;1.33;;;6.50;78.20;;;;;;4973131;28;20027;-90
2021/04/05 06:55:02;;;;;;;3.08;1.40;;;6.50;78.20;;;;;;4973164;28;20042;-90
2021/04/05 06:58:01;;;;;;;1.80;0.90;;;6.50;78.20;;;;;;4971242;28;20054;-90
2021/04/05 07:01:04;;;;;;;2.22;1.00;;;6.50;78.20;;;;;;4971776;28;20030;-90
2021/04/05 07:04:08;;;;;;;3.88;1.70;;;6.50;78.00;;;;;;4971922;28;20027;-90
2021/04/05 07:06:49;;;;;;;3.88;1.30;;;6.60;77.90;;;;;;4972308;28;20038;-88
2021/04/05 07:09:39;;;;;;;7.60;1.40;;;6.50;77.80;;;;;;4973020;28;20234;-89
2021/04/05 07:12:29;;;;;;;3.88;1.40;;;6.40;78.00;;;;;;4971728;28;20557;-87
2021/04/05 07:15:28;;;;;;;5.55;2.40;;;6.30;78.30;;;;;;4970045;28;20069;-88
2021/04/05 07:18:06;;;;;;;6.20;2.65;;;6.20;78.60;;;;;;4971876;28;20027;-91
2021/04/05 07:20:32;;;;;;;3.60;1.10;;;6.20;78.50;;;;;;4971063;28;20078;-88
2021/04/05 07:23:16;;;;;;;2.92;0.90;;;6.10;78.20;;;;;;4970611;28;20030;-87
2021/04/05 07:26:14;;;;;;;3.30;0.80;;;6.00;78.10;;;;;;4968021;28;20109;-87
2021/04/05 07:29:04;;;;;;;2.38;0.85;;;6.00;78.00;;;;;;4969372;28;20027;-88
2021/04/05 07:32:01;;;;;;;1.40;0.60;;;6.00;77.80;;;;;;4968799;28;20019;-88
2021/04/05 07:34:57;;;;;;;2.42;0.77;;;6.00;77.90;;;;;;4966495;28;20047;-88
2021/04/05 07:38:00;;;;;;;3.38;1.00;;;5.90;77.90;;;;;;4983689;28;20034;-88
2021/04/05 07:40:53;;;;;;;4.60;1.00;;;5.90;77.90;;;;;;4968385;28;20022;-87
2021/04/05 07:43:43;;;;;;;6.55;1.25;;;5.70;77.90;;;;;;4967993;28;20038;-88
2021/04/05 07:46:18;;;;;;;7.38;1.58;;;5.70;77.90;;;;;;4967646;28;20030;-89
2021/04/05 07:49:02;;;;;;;7.22;1.50;;;5.60;78.00;;;;;;4965825;28;20161;-89
2021/04/05 07:51:38;;;;;;;7.10;1.75;;;5.50;78.00;;;;;;4967959;28;20030;-87
2021/04/05 07:54:06;;;;;;;8.82;1.50;;;5.40;78.10;;;;;;4968919;28;20049;-88
2021/04/05 07:56:35;;;;;;;7.10;1.77;;;5.30;78.00;;;;;;4966915;28;20077;-88
2021/04/05 07:59:21;;;;;;;10.60;1.67;;;5.20;77.90;;;;;;4968094;28;20520;-88
2021/04/05 08:02:01;;;;;;;10.30;2.17;;;5.20;77.70;;;;;;4966561;28;20054;-89
2021/04/05 08:04:49;;;;;;;9.25;1.95;;;5.20;77.40;;;;;;4968633;28;20056;-89
2021/04/05 08:07:43;;;;;;;10.23;2.88;;;5.20;77.50;;;;;;4973247;28;20401;-84
2021/04/05 08:10:32;;;;;;;8.00;1.95;;;5.20;77.10;;;;;;4970425;28;20050;-86
2021/04/05 08:13:36;;;;;;;11.27;2.53;;;5.20;76.80;;;;;;4968128;28;20054;-85
2021/04/05 08:16:25;;;;;;;9.05;1.85;;;5.30;76.50;;;;;;4957263;28;20592;-88
2021/04/05 08:18:54;;;;;;;9.20;2.20;;;5.40;76.20;;;;;;4970254;28;20045;-91
2021/04/05 08:21:32;;;;;;;6.95;1.85;;;5.50;75.90;;;;;;4966463;28;20363;-89
2021/04/05 08:24:09;;;;;;;7.97;2.15;;;5.50;75.60;;;;;;4969006;28;20030;-88
2021/04/05 08:26:49;;;;;;;10.65;2.05;;;5.60;74.60;;;;;;4964250;28;20031;-85
2021/04/05 08:29:42;;;;;;;8.45;2.22;;;5.60;74.20;;;;;;4966347;28;20378;-86
2021/04/05 08:32:12;;;;;;;;;;;5.60;73.50;;;;;;4967861;28;20086;-86
2021/04/05 08:35:08;;;;;;;7.18;1.88;;;5.60;72.40;;;;;;4970446;28;19925;-88
2021/04/05 08:37:46;;;;;;;4.93;1.35;;;5.70;71.50;;;;;;4968467;28;20405;-88
2021/04/05 08:40:40;;;;;;;5.18;1.63;;;5.80;70.50;;;;;;4968542;28;20121;-87
2021/04/05 08:43:24;;;;;;;5.53;1.45;;;5.80;69.30;;;;;;4967799;28;20492;-87
2021/04/05 08:45:57;;;;;;;7.32;1.40;;;5.90;68.80;;;;;;4970325;28;20031;-88
2021/04/05 08:48:26;;;;;;;5.40;1.70;;;6.00;68.70;;;;;;4967733;28;20416;-86
2021/04/05 08:50:58;;;;;;;7.00;1.25;;;6.00;68.30;;;;;;4969712;28;20030;-89
2021/04/05 08:53:27;;;;;;;5.22;1.70;;;6.10;68.20;;;;;;4973358;28;20035;-87
2021/04/05 08:55:57;;;;;;;7.65;1.48;;;6.10;67.40;;;;;;4972633;28;20069;-89
2021/04/05 08:58:33;;;;;;;5.40;1.33;;;6.20;67.10;;;;;;4973736;28;20061;-90
2021/04/05 09:01:03;;;;;;;3.58;1.23;;;6.20;66.50;;;;;;4973099;28;20398;-89
2021/04/05 09:03:33;;;;;;;4.80;1.50;;;6.20;65.10;;;;;;4975198;28;20064;-90
2021/04/05 09:06:29;;;;;;;6.07;1.40;;;6.20;63.80;;;;;;4972717;28;20026;-91
2021/04/05 09:08:57;;;;;;;6.85;1.77;;;6.20;63.90;;;;;;4968451;28;20042;-90
2021/04/05 09:11:25;;;;;;;4.85;1.40;;;6.10;63.00;;;;;;4972694;28;20035;-88
2021/04/05 09:13:55;;;;;;;4.15;1.20;;;6.00;63.40;;;;;;4973627;28;20085;-88
2021/04/05 09:16:21;;;;;;;3.88;1.10;;;5.80;65.00;;;;;;4975647;28;20093;-88
2021/04/05 09:19:06;;;;;;;2.40;0.85;;;5.50;66.80;;;;;;4975648;28;20488;-89
2021/04/05 09:22:10;;;;;;;1.42;0.70;;;5.30;67.70;;;;;;4967943;28;20026;-88
2021/04/05 09:25:05;;;;;;;1.65;0.60;;;5.30;68.10;;;;;;4970614;28;20111;-91
2021/04/05 09:28:10;;;;;;;1.48;0.75;;;5.40;68.10;;;;;;4972580;28;20351;-91
2021/04/05 09:31:14;;;;;;;1.48;0.88;;;5.50;68.00;;;;;;4969371;28;20489;-88
2021/04/05 09:33:58;;;;;;;0.77;0.60;;;5.40;68.20;;;;;;4968656;28;20066;-87
2021/04/05 09:36:41;;;;;;;0.45;0.40;;;5.10;69.70;;;;;;4967517;28;20038;-88
2021/04/05 09:39:18;;;;;;;1.52;0.68;;;4.70;71.20;;;;;;4970237;28;20030;-88
2021/04/05 09:42:08;;;;;;;1.55;0.63;;;4.40;72.20;;;;;;4972447;28;20339;-89
2021/04/05 09:44:52;;;;;;;1.75;0.63;;;4.40;72.90;;;;;;4974052;28;20073;-90
2021/04/05 09:47:54;;;;;;;4.10;1.00;;;4.50;73.00;;;;;;4972969;28;20038;-90
2021/04/05 09:51:07;;;;;;;1.70;0.50;;;4.60;72.50;;;;;;4969892;28;20027;-89
2021/04/05 09:54:22;;;;;;;3.10;0.80;;;4.60;71.80;;;;;;4968933;28;20042;-88
2021/04/05 09:56:57;;;;;;;3.95;1.00;;;4.80;71.80;;;;;;4909071;29;20651;-90
2021/04/05 09:59:44;;;;;;;4.13;1.08;;;4.80;71.20;;;;;;4895481;29;20487;-87
2021/04/05 10:02:14;;;;;;;2.40;0.95;;;4.90;71.10;;;;;;4954945;28;20068;-87
2021/04/05 10:04:48;;;;;;;3.78;1.00;;;5.00;70.70;;;;;;4968255;28;20126;-90
2021/04/05 10:07:17;;;;;;;3.53;1.20;;;5.00;70.20;;;;;;4971408;28;20022;-90
2021/04/05 10:09:47;;;;;;;4.75;1.35;;;5.20;69.60;;;;;;4970899;28;20046;-89
2021/04/05 10:12:14;;;;;;;4.47;1.45;;;5.30;69.00;;;;;;4969046;28;20043;-89
2021/04/05 10:14:41;;;;;;;4.00;1.08;;;5.30;66.80;;;;;;4971025;28;20140;-89
2021/04/05 10:17:09;;;;;;;6.10;1.60;;;5.40;66.10;;;;;;4976666;28;20022;-92
2021/04/05 10:19:40;;;;;;;5.65;2.05;;;5.50;65.20;;;;;;4976650;28;20381;-88
2021/04/05 10:22:18;;;;;;;6.15;1.75;;;5.70;64.30;;;;;;4973223;28;20519;-89
2021/04/05 10:24:45;;;;;;;5.47;1.40;;;5.80;63.50;;;;;;4972143;28;20064;-91
2021/04/05 10:27:14;;;;;;;3.70;1.30;;;5.70;63.30;;;;;;4981203;28;20085;-92
2021/04/05 10:29:42;;;;;;;7.07;1.95;;;5.70;62.90;;;;;;4970998;28;20019;-93
2021/04/05 10:32:13;;;;;;;3.95;1.48;;;5.60;62.90;;;;;;4974460;28;20031;-92
2021/04/05 10:34:44;;;;;;;4.90;1.50;;;5.70;63.00;;;;;;4969659;28;20547;-90
2021/04/05 10:37:13;;;;;;;9.05;1.95;;;5.60;62.90;;;;;;4969042;28;20030;-89
2021/04/05 10:39:49;;;;;;;6.30;1.60;;;5.60;63.00;;;;;;4970178;28;20114;-89
2021/04/05 10:42:22;;;;;;;4.03;1.50;;;5.50;62.50;;;;;;4966919;28;20233;-87
2021/04/05 10:44:51;;;;;;;4.93;1.35;;;5.40;61.00;;;;;;4970148;28;20053;-88
2021/04/05 10:47:31;;;;;;;6.88;1.50;;;5.30;58.50;;;;;;4973591;28;20073;-92
2021/04/05 10:49:58;;;;;;;5.50;1.67;;;5.10;56.90;;;;;;4972837;28;20026;-90
2021/04/05 10:52:27;;;;;;;17.63;2.42;;;5.10;56.60;;;;;;4973035;28;20449;-90
2021/04/05 10:54:54;;;;;;;4.10;1.30;;;5.10;55.60;;;;;;4975599;28;20461;-90
2021/04/05 10:57:29;;;;;;;5.38;1.75;;;5.10;55.80;;;;;;4975712;28;20028;-90
2021/04/05 11:00:00;;;;;;;4.50;1.65;;;5.20;55.60;;;;;;4978774;28;20126;-89
2021/04/05 11:03:00;;;;;;;9.33;1.87;;;5.20;54.80;;;;;;4975116;28;20033;-89
2021/04/05 11:05:28;;;;;;;5.93;1.60;;;5.30;54.60;;;;;;4993497;28;20548;-90
2021/04/05 11:07:59;;;;;;;5.07;1.65;;;5.40;53.80;;;;;;4980785;28;20505;-89
2021/04/05 11:10:29;;;;;;;8.18;1.70;;;5.60;53.90;;;;;;4976200;28;20060;-90
2021/04/05 11:13:05;;;;;;;4.70;1.33;;;5.80;53.80;;;;;;4974717;28;20045;-88
2021/04/05 11:15:32;;;;;;;5.63;1.00;;;5.60;55.20;;;;;;4975757;28;20030;-88
2021/04/05 11:18:02;;;;;;;2.20;0.93;;;5.10;57.80;;;;;;4972874;28;20034;-87
2021/04/05 11:20:34;;;;;;;1.90;0.85;;;4.70;59.60;;;;;;4967602;28;20450;-89
2021/04/05 11:23:07;;;;;;;1.73;0.90;;;4.30;60.90;;;;;;4968893;28;20391;-88
2021/04/05 11:25:48;;;;;;;3.72;1.20;;;4.10;61.80;;;;;;4969336;28;20101;-89
2021/04/05 11:28:21;;;;;;;3.30;1.10;;;3.90;62.40;;;;;;4965475;28;20077;-88
2021/04/05 11:31:15;;;;;;;5.13;1.10;;;3.90;62.70;;;;;;4966040;28;20035;-90
2021/04/05 11:33:51;;;;;;;2.42;1.00;;;3.80;62.70;;;;;;4967421;28;20042;-91
2021/04/05 11:36:18;;;;;;;5.32;1.38;;;4.00;62.80;;;;;;4969733;28;20517;-89
2021/04/05 11:38:49;;;;;;;2.70;1.02;;;4.10;62.50;;;;;;4968778;28;20141;-89
2021/04/05 11:41:21;;;;;;;3.05;1.10;;;4.40;62.30;;;;;;4970627;28;20061;-90
2021/04/05 11:43:53;;;;;;;4.38;1.42;;;4.70;61.90;;;;;;4970283;28;20039;-90
2021/04/05 11:46:26;;;;;;;5.40;1.35;;;5.00;61.50;;;;;;4972074;28;20023;-88
2021/04/05 11:49:07;;;;;;;4.30;1.17;;;5.20;60.40;;;;;;4968829;28;20118;-90
2021/04/05 11:51:40;;;;;;;4.32;1.60;;;5.40;59.70;;;;;;4967034;28;20031;-88
2021/04/05 11:54:07;;;;;;;;;;;5.60;58.00;;;;;;4971105;28;20393;-90
2021/04/05 11:56:36;;;;;;;5.80;1.73;;;5.70;57.20;;;;;;4973426;28;19917;-91
2021/04/05 11:59:16;;;;;;;3.80;1.30;;;5.80;56.60;;;;;;4971344;28;20038;-90
2021/04/05 12:01:52;;;;;;;3.97;1.15;;;5.90;56.20;;;;;;4972024;28;20038;-91
2021/04/05 12:04:23;;;;;;;6.95;1.30;;;6.20;55.90;;;;;;4973723;28;20039;-91
2021/04/05 12:07:16;;;;;;;4.25;0.98;;;6.20;55.00;;;;;;4967251;28;20569;-88
2021/04/05 12:10:00;;;;;;;4.13;1.17;;;6.00;53.50;;;;;;4984955;28;20521;-88
2021/04/05 12:12:39;;;;;;;5.40;1.27;;;5.50;54.50;;;;;;4969940;28;20343;-88
2021/04/05 12:15:09;;;;;;;5.00;1.00;;;5.20;56.10;;;;;;4968576;28;20039;-90
2021/04/05 12:17:38;;;;;;;1.90;1.02;;;5.10;57.30;;;;;;4968221;28;20042;-92
2021/04/05 12:20:07;;;;;;;4.03;0.93;;;5.20;57.90;;;;;;4970446;28;20031;-91
2021/04/05 12:22:33;;;;;;;3.25;1.00;;;5.30;58.10;;;;;;4969936;28;20031;-91
2021/04/05 12:25:03;;;;;;;5.53;1.00;;;5.60;57.20;;;;;;4970266;28;20027;-92
2021/04/05 12:27:32;;;;;;;3.20;1.10;;;5.90;56.30;;;;;;4971681;28;20509;-92
2021/04/05 12:30:00;;;;;;;4.63;1.27;;;6.20;54.50;;;;;;4969636;28;20023;-93
2021/04/05 12:32:27;;;;;;;4.07;1.33;;;6.40;53.00;;;;;;4974239;28;20034;-91
2021/04/05 12:35:02;;;;;;;3.42;1.00;;;6.40;51.30;;;;;;4972880;28;20027;-92
2021/04/05 12:37:29;;;;;;;2.75;1.20;;;6.10;53.50;;;;;;4973412;28;20019;-91
2021/04/05 12:39:59;;;;;;;3.00;0.90;;;5.70;56.20;;;;;;4972966;28;20340;-91
2021/04/05 12:42:34;;;;;;;5.40;1.25;;;5.30;57.90;;;;;;4974493;28;20026;-92
2021/04/05 12:45:02;;;;;;;3.38;1.50;;;5.00;59.30;;;;;;4975238;28;20031;-93
2021/04/05 12:47:36;;;;;;;8.35;5.93;;;4.90;60.50;;;;;;4975403;28;20015;-90
2021/04/05 12:50:08;;;;;;;2.70;1.50;;;5.00;61.30;;;;;;4971212;28;20030;-92
2021/04/05 12:52:36;;;;;;;5.10;2.50;;;5.00;61.40;;;;;;4975684;28;20031;-93
2021/04/05 12:55:09;;;;;;;3.85;2.10;;;5.20;61.30;;;;;;4979946;28;20045;-93
2021/04/05 12:57:37;;;;;;;4.15;1.63;;;5.40;61.10;;;;;;4974993;28;20035;-92
2021/04/05 13:00:21;;;;;;;5.53;1.80;;;5.70;60.40;;;;;;4979329;28;20108;-92
2021/04/05 13:03:00;;;;;;;6.65;1.73;;;5.90;59.40;;;;;;4980073;28;20038;-91
2021/04/05 13:05:40;;;;;;;3.67;1.30;;;6.10;58.00;;;;;;4974661;28;20066;-93
2021/04/05 13:08:30;;;;;;;3.85;1.17;;;6.00;54.80;;;;;;4973871;28;20062;-93
2021/04/05 13:11:02;;;;;;;2.13;1.20;;;6.10;53.90;;;;;;4946044;28;20035;-93
2021/04/05 13:13:31;;;;;;;2.53;1.58;;;6.40;52.90;;;;;;4973920;28;20372;-93
2021/04/05 13:16:05;;;;;;;2.50;1.23;;;6.50;51.00;;;;;;4974126;28;20122;-91
2021/04/05 13:18:35;;;;;;;4.10;1.10;;;6.60;49.80;;;;;;4977164;28;20070;-93
2021/04/05 13:21:04;;;;;;;2.20;1.10;;;6.70;49.20;;;;;;4976965;28;20085;-92
2021/04/05 13:23:34;;;;;;;3.58;1.10;;;6.70;48.70;;;;;;4976161;28;20027;-93
2021/04/05 13:26:05;;;;;;;2.72;1.10;;;6.90;48.20;;;;;;4976444;28;20023;-94
2021/04/05 13:28:34;;;;;;;4.57;2.83;;;6.90;45.60;;;;;;4971717;28;20082;-91
2021/04/05 13:31:03;;;;;;;2.95;1.40;;;6.70;45.00;;;;;;4976047;28;20536;-91
2021/04/05 13:33:37;;;;;;;3.33;1.48;;;6.60;45.40;;;;;;4975053;28;20361;-92
2021/04/05 13:36:12;;;;;;;3.22;1.50;;;6.50;45.60;;;;;;4978074;28;20038;-91